Latest Weather Observations for Cape Byron

IDN60801

Issued at 3:06 pm EDT Thursday 29 January 2015 (issued every 30 minutes, with the page automatically refreshed every 10 minutes)

About weather observations | Map of weather stations | Latest weather observations for NSW | Other Formats
Station Details ID: 058216 Name: CAPE BYRON AWS Lat: -28.64 Lon: 153.64 Height: 95.0 m
Data from the previous 72 hours. | See also: Recent months at Cape Byron
Date/Time
EDT
Temp
°C
App
Temp
°C
Dew
Point
Rel
Hum
%
Delta-T
°C
Wind Press
QNH
hPa
Press
MSL
hPa
Rain
since 9 am
mm
Dir
 
Spd
km/h
Gust
km/h
Spd
kts
Gust
kts
29/03:00pm 23.9 19.9 16.2 62 4.7 S 32 35 17 19 1008.7 1008.2 0.0
29/02:30pm 24.0 20.3 17.0 65 4.3 S 32 39 17 21 1008.8 1008.3 0.0
29/02:00pm 23.6 19.5 16.4 64 4.4 S 33 37 18 20 1009.0 1008.5 0.0
29/01:30pm 23.5 19.5 16.8 66 4.1 SSW 33 39 18 21 1009.2 1008.7 0.0
29/01:00pm 23.3 18.9 15.6 62 4.7 SSW 33 41 18 22 1009.4 1008.9 0.0
29/12:30pm 23.2 18.6 16.0 64 4.4 SSW 35 41 19 22 1009.7 1009.2 0.0
29/12:00pm 23.2 18.4 16.5 66 4.1 SSW 37 44 20 24 1009.6 1009.1 0.0
29/11:30am 22.7 18.0 15.8 65 4.2 SSW 35 48 19 26 1009.9 1009.4 0.0
29/11:00am 22.1 18.9 16.4 70 3.5 SSW 28 39 15 21 1009.9 1009.4 0.0
29/10:30am 21.3 18.6 15.6 70 3.4 SW 24 32 13 17 1010.1 1009.6 0.0
29/10:00am 21.4 18.0 15.7 70 3.4 SW 28 39 15 21 1010.1 1009.6 0.0
29/09:30am 21.0 16.8 14.6 67 3.8 SW 30 39 16 21 1009.9 1009.4 0.0
29/09:00am 20.5 15.6 13.7 65 3.9 SW 32 41 17 22 1009.8 1009.3 0.8
29/08:30am 19.8 14.6 12.8 64 4.0 SW 32 41 17 22 1009.6 1009.1 0.8
29/08:00am 19.6 14.3 13.1 66 3.7 SW 33 44 18 24 1009.5 1009.0 0.8
29/07:30am 18.8 13.0 12.8 68 3.4 WSW 35 46 19 25 1009.1 1008.6 0.8
29/07:00am 18.4 13.5 12.6 69 3.3 SW 30 39 16 21 1008.9 1008.4 0.8
29/06:30am 18.4 13.5 12.6 69 3.3 SW 30 39 16 21 1008.3 1007.8 0.8
29/06:00am 18.6 14.2 12.8 69 3.3 SW 28 35 15 19 1008.1 1007.6 0.8
29/05:30am 18.7 13.5 12.9 69 3.3 SW 32 43 17 23 1007.8 1007.3 0.8
29/05:00am 19.0 11.8 13.0 68 3.4 SW 43 52 23 28 1007.4 1006.8 0.8
29/04:30am 18.7 12.3 13.1 70 3.2 SW 39 54 21 29 1006.8 1006.2 0.8
29/04:00am 18.9 13.9 13.3 70 3.2 SW 32 41 17 22 1007.5 1006.9 0.8
29/03:30am 19.1 12.8 13.5 70 3.2 SW 39 52 21 28 1007.4 1006.8 0.8
29/03:00am 19.2 12.6 13.8 71 3.1 SW 41 56 22 30 1007.3 1006.7 0.8
29/02:33am 19.3 13.6 14.3 73 2.9 SW 37 56 20 30 1007.6 1007.1 0.8
29/02:30am 19.2 13.5 14.2 73 2.9 SW 37 48 20 26 1007.6 1007.1 0.8
29/02:00am 19.3 13.9 15.0 76 2.5 SW 37 46 20 25 1008.0 1007.5 0.8
29/01:30am 19.2 14.9 15.5 79 2.2 WSW 32 39 17 21 1008.6 1008.1 0.8
29/01:00am 19.2 14.9 15.5 79 2.2 SW 32 46 17 25 1008.8 1008.3 0.8
29/12:30am 19.3 14.9 15.6 79 2.2 WSW 33 46 18 25 1008.7 1008.2 0.8
29/12:00am 19.5 15.1 15.6 78 2.3 SW 33 41 18 22 1008.4 1007.9 0.8
 
Date/Time
EDT
Temp
°C
App
Temp
°C
Dew
Point
Rel
Hum
%
Delta-T
°C
Wind Press
QNH
hPa
Press
MSL
hPa
Rain
since 9 am
mm
Dir
 
Spd
km/h
Gust
km/h
Spd
kts
Gust
kts
28/11:30pm 19.7 15.5 16.2 80 2.1 SW 33 44 18 24 1008.9 1008.4 0.8
28/11:00pm 19.7 15.6 16.5 82 1.9 SW 33 46 18 25 1009.0 1008.5 0.8
28/10:30pm 19.8 15.8 16.8 83 1.8 SW 33 46 18 25 1008.8 1008.3 0.8
28/10:00pm 19.8 16.1 17.4 86 1.5 SW 33 46 18 25 1008.2 1007.7 0.8
28/09:30pm 19.7 15.4 17.7 88 1.2 SW 37 48 20 26 1008.3 1007.8 0.8
28/09:00pm 20.0 16.5 17.4 85 1.6 SW 32 39 17 21 1008.7 1008.2 0.6
28/08:47pm 21.1 17.4 16.9 77 2.6 SW 32 44 17 24 1008.8 1008.3 0.6
28/08:30pm 21.9 15.5 16.8 73 3.1 SSW 46 61 25 33 1008.6 1008.1 0.6
28/08:10pm 20.5 18.7 18.8 90 1.1 SSW 26 50 14 27 1008.5 1008.0 0.6
28/08:00pm 19.5 16.6 18.0 91 0.9 SW 30 35 16 19 1008.3 1007.8 0.4
28/07:30pm 19.8 16.3 17.9 89 1.2 SW 33 44 18 24 1008.2 1007.7 0.4
28/07:00pm 20.1 15.4 17.7 86 1.5 SW 39 48 21 26 1007.5 1006.9 0.2
28/06:33pm 20.4 16.1 17.8 85 1.6 SW 37 57 20 31 1007.2 1006.6 0.2
28/06:30pm 20.5 16.6 17.9 85 1.6 SW 35 46 19 25 1007.2 1006.6 0.2
28/06:00pm 21.4 17.8 18.6 84 1.8 SW 35 46 19 25 1007.2 1006.6 0.2
28/05:30pm 20.7 17.5 18.6 88 1.3 SW 33 44 18 24 1007.1 1006.5 0.2
28/05:00pm 20.9 16.7 19.0 89 1.2 SW 39 50 21 27 1007.0 1006.4 0.2
28/04:46pm 20.7 16.0 18.6 88 1.3 SSW 41 59 22 32 1006.9 1006.3 0.2
28/04:30pm 20.4 16.9 18.7 90 1.1 SW 35 44 19 24 1006.9 1006.3 0.2
28/04:00pm 21.4 16.8 18.0 81 2.1 SSW 39 57 21 31 1007.1 1006.5 0.0
28/03:54pm 22.5 18.2 17.8 75 2.9 S 37 57 20 31 1006.8 1006.2 0.0
28/03:53pm 23.1 19.3 18.0 73 3.2 S 35 54 19 29 1006.9 1006.3 0.0
28/03:30pm 23.0 18.4 17.9 73 3.2 SSE 39 54 21 29 1007.1 1006.5 0.0
28/03:20pm 22.4 15.9 17.5 74 3.0 S 48 57 26 31 1007.2 1006.6 0.0
28/03:00pm 21.9 18.7 19.5 86 1.5 SSW 35 48 19 26 1007.2 1006.6 0.0
28/02:30pm 22.4 21.5 19.9 86 1.6 SW 24 32 13 17 1007.3 1006.7 0.0
28/02:00pm 21.3 21.4 19.9 92 0.9 SW 19 26 10 14 1007.9 1007.4 0.0
28/01:30pm 20.1 17.9 18.6 91 0.9 SSW 28 35 15 19 1008.1 1007.6 0.0
28/01:00pm 20.5 18.5 18.4 88 1.3 SW 26 39 14 21 1008.1 1007.6 0.0
28/12:30pm 21.0 17.8 18.2 84 1.7 SW 32 44 17 24 1008.0 1007.5 0.0
28/12:00pm 20.3 17.9 18.2 88 1.3 SW 28 35 15 19 1008.2 1007.7 0.0
28/11:30am 19.9 16.7 18.2 90 1.1 SW 32 46 17 25 1007.9 1007.4 0.0
28/11:00am 19.3 15.3 17.6 90 1.0 SW 35 46 19 25 1008.1 1007.6 0.0
28/10:30am 18.9 15.8 17.4 91 0.9 SW 30 41 16 22 1008.1 1007.6 0.0
28/10:00am 19.1 16.3 17.4 90 1.0 WSW 28 39 15 21 1007.8 1007.3 0.0
28/09:30am 18.8 15.7 17.5 92 0.8 SW 30 43 16 23 1007.5 1006.9 0.0
28/09:00am 18.1 14.3 17.1 94 0.6 WSW 33 46 18 25 1007.6 1007.1 10.0
28/08:30am 17.9 13.7 17.1 95 0.5 SW 35 48 19 26 1007.0 1006.4 10.0
28/08:00am 17.6 13.7 17.0 96 0.4 WSW 33 44 18 24 1007.1 1006.5 10.0
28/07:30am 17.6 13.9 17.0 96 0.4 WSW 32 41 17 22 1006.7 1006.1 10.0
28/07:00am 17.5 13.8 16.9 96 0.4 SW 32 39 17 21 1006.5 1005.9 10.0
28/06:30am 17.5 14.6 17.0 97 0.3 WSW 28 37 15 20 1006.2 1005.6 10.0
28/06:00am 17.6 15.4 17.0 96 0.4 SW 24 33 13 18 1006.0 1005.4 10.0
28/05:30am 17.5 14.9 16.9 96 0.4 SW 26 37 14 20 1006.2 1005.6 9.8
28/05:00am 17.4 13.6 16.8 96 0.4 SW 32 39 17 21 1006.1 1005.5 9.8
28/04:30am 17.5 13.6 16.9 96 0.4 WSW 33 44 18 24 1006.3 1005.7 9.8
28/04:00am 17.7 13.5 17.1 96 0.4 SW 35 44 19 24 1006.4 1005.8 9.6
28/03:30am 18.0 15.2 17.4 96 0.4 WSW 28 33 15 18 1006.7 1006.1 9.2
28/03:00am 18.3 15.3 17.7 96 0.4 SW 30 39 16 21 1007.1 1006.5 9.0
28/02:30am 18.5 14.9 17.7 95 0.5 SW 33 44 18 24 1007.6 1007.1 8.8
28/02:00am 19.0 15.8 18.2 95 0.5 SW 32 43 17 23 1008.3 1007.8 8.2
28/01:30am 19.5 16.8 18.5 94 0.6 SW 30 39 16 21 1008.8 1008.3 4.6
28/01:00am 19.8 16.6 18.5 92 0.8 SW 33 44 18 24 1009.1 1008.6 1.8
28/12:30am 21.1 15.8 19.4 90 1.1 SSW 46 59 25 32 1008.5 1008.0 0.8
28/12:02am 20.9 18.1 19.0 89 1.2 SSW 32 50 17 27 1008.7 1008.2 0.6
28/12:00am 21.0 17.6 19.1 89 1.2 SSW 35 50 19 27 1008.8 1008.3 0.6
 
Date/Time
EDT
Temp
°C
App
Temp
°C
Dew
Point
Rel
Hum
%
Delta-T
°C
Wind Press
QNH
hPa
Press
MSL
hPa
Rain
since 9 am
mm
Dir
 
Spd
km/h
Gust
km/h
Spd
kts
Gust
kts
27/11:50pm 21.4 17.9 19.5 89 1.2 SSW 37 54 20 29 1008.9 1008.4 0.6
27/11:30pm 21.5 15.5 18.7 84 1.8 S 48 56 26 30 1008.6 1008.1 0.4
27/11:00pm 23.7 18.3 17.9 70 3.6 S 43 50 23 27 1008.9 1008.4 0.0
27/10:30pm 24.0 20.7 18.0 69 3.8 SSE 32 41 17 22 1008.8 1008.3 0.0
27/10:00pm 24.2 20.4 17.2 65 4.4 SSE 33 43 18 23 1008.8 1008.3 0.0
27/09:30pm 24.2 20.7 17.4 65 4.2 SE 32 43 17 23 1008.7 1008.2 0.0
27/09:00pm 24.3 20.8 17.5 66 4.3 SE 32 41 17 22 1008.4 1007.9 0.0
27/08:43pm 24.4 20.9 17.4 65 4.4 SE 32 46 17 25 1008.3 1007.8 0.0
27/08:30pm 24.3 19.8 17.3 65 4.4 ESE 37 46 20 25 1007.7 1007.2 0.0
27/08:00pm 24.4 20.4 17.6 66 4.3 ESE 35 44 19 24 1007.4 1006.8 0.0
27/07:30pm 24.4 19.9 17.4 65 4.4 E 37 44 20 24 1007.2 1006.6 0.0
27/07:00pm 24.6 20.3 17.8 66 4.3 E 37 46 20 25 1007.1 1006.5 0.0
27/06:30pm 24.8 20.7 18.3 67 4.1 E 37 46 20 25 1006.8 1006.2 0.0
27/06:00pm 24.8 20.4 18.5 68 4.0 E 39 48 21 26 1006.1 1005.5 0.0
27/05:30pm 25.1 20.9 19.0 69 3.9 E 39 46 21 25 1006.2 1005.6 0.0
27/05:00pm 25.3 21.4 18.7 67 4.2 E 37 44 20 24 1006.3 1005.7 0.0
27/04:30pm 25.7 22.1 18.6 65 4.5 E 35 44 19 24 1006.6 1006.0 0.0
27/04:00pm 26.9 23.6 19.3 63 4.9 E 35 43 19 23 1007.0 1006.4 0.0
27/03:30pm 26.4 23.4 19.8 67 4.3 E 35 46 19 25 1007.4 1006.8 0.0
27/03:00pm 26.6 23.0 18.5 61 5.2 E 35 43 19 23 1007.6 1007.1 0.0
27/02:30pm 26.8 23.0 18.9 62 5.1 E 37 46 20 25 1007.9 1007.4 0.0
27/02:00pm 28.5 26.2 20.2 60 5.5 E 32 39 17 21 1008.4 1007.9 0.0
27/01:30pm 28.3 25.8 19.8 60 5.6 E 32 39 17 21 1008.6 1008.1 0.0
27/01:00pm 27.9 25.4 19.7 61 5.4 E 32 37 17 20 1009.0 1008.5 0.0
27/12:30pm 27.1 24.2 18.9 61 5.3 E 32 39 17 21 1009.3 1008.8 0.0
27/12:00pm 27.7 24.4 19.2 60 5.5 E 35 41 19 22 1009.3 1008.8 0.0
27/11:30am 27.6 24.8 19.4 61 5.3 E 33 39 18 21 1009.3 1008.8 0.0
27/11:00am 27.3 24.9 19.9 64 4.8 E 32 39 17 21 1009.4 1008.9 0.0
27/10:30am 28.3 26.6 20.6 63 5.1 E 30 37 16 20 1009.5 1009.0 0.0
27/10:00am 27.6 25.8 20.4 65 4.8 E 30 35 16 19 1009.4 1008.9 0.0
27/09:30am 27.1 24.7 20.4 66 4.4 E 33 39 18 21 1009.3 1008.8 0.0
27/09:00am 26.2 23.3 20.1 69 4.0 E 35 41 19 22 1009.2 1008.7 0.0
27/08:30am 25.4 23.1 20.2 73 3.4 E 32 39 17 21 1009.3 1008.8 0.0
27/08:00am 26.1 24.3 20.4 71 3.7 E 30 35 16 19 1009.2 1008.7 0.0
27/07:30am 25.4 23.7 20.6 75 3.2 E 30 35 16 19 1008.9 1008.4 0.0
27/07:00am 24.8 22.7 20.5 77 2.8 E 32 37 17 20 1008.5 1008.0 0.0
27/06:30am 24.6 22.9 20.5 78 2.7 E 30 37 16 20 1008.3 1007.8 0.0
27/06:00am 24.6 23.5 21.1 81 2.3 E 28 35 15 19 1007.9 1007.4 0.0
27/05:30am 24.6 23.4 20.9 80 2.4 E 28 37 15 20 1007.7 1007.2 0.0
27/05:00am 24.6 22.7 20.9 80 2.4 E 32 35 17 19 1007.8 1007.3 0.0
27/04:30am 24.7 22.8 21.0 80 2.4 E 32 39 17 21 1007.7 1007.2 0.0
27/04:00am 24.8 23.3 20.9 79 2.6 E 30 35 16 19 1007.7 1007.2 0.0
27/03:30am 24.8 22.9 20.9 79 2.6 E 32 37 17 20 1007.8 1007.3 0.0
27/03:00am 24.9 23.9 21.2 80 2.5 E 28 35 15 19 1008.0 1007.5 0.0
27/02:30am 24.9 24.7 21.2 80 2.4 E 24 32 13 17 1008.3 1007.8 0.0
27/02:00am 25.0 24.8 21.3 80 2.5 ENE 24 35 13 19 1008.4 1007.9 0.0
27/01:30am 24.9 23.8 21.0 79 2.6 E 28 35 15 19 1008.7 1008.2 0.0
27/01:00am 25.0 23.6 21.1 79 2.6 E 30 41 16 22 1009.0 1008.5 0.0
27/12:30am 25.1 23.4 21.4 80 2.5 E 32 41 17 22 1008.9 1008.4 0.0
27/12:00am 25.2 24.1 21.1 78 2.7 E 28 35 15 19 1009.7 1009.2 0.0
 
Date/Time
EDT
Temp
°C
App
Temp
°C
Dew
Point
Rel
Hum
%
Delta-T
°C
Wind Press
QNH
hPa
Press
MSL
hPa
Rain
since 9 am
mm
Dir
 
Spd
km/h
Gust
km/h
Spd
kts
Gust
kts
26/11:30pm 25.3 23.6 21.4 79 2.6 E 32 39 17 21 1009.5 1009.0 0.0
26/11:00pm 25.2 23.5 21.7 81 2.3 E 33 39 18 21 1009.6 1009.1 0.0
26/10:30pm 25.4 23.9 21.7 80 2.5 E 32 41 17 22 1009.6 1009.1 0.0
26/10:00pm 25.5 25.1 21.6 79 2.6 E 26 30 14 16 1010.1 1009.6 0.0
26/09:30pm 25.5 24.4 21.8 80 2.5 E 30 37 16 20 1009.8 1009.3 0.0
26/09:00pm 25.7 25.4 21.8 79 2.6 E 26 32 14 17 1010.1 1009.6 0.0
26/08:30pm 25.7 25.3 21.6 78 2.7 ESE 26 32 14 17 1009.7 1009.2 0.0
26/08:00pm 25.8 24.8 21.9 79 2.6 ESE 30 35 16 19 1009.1 1008.6 0.0
26/07:30pm 25.9 24.8 21.8 78 2.7 ESE 30 37 16 20 1009.0 1008.5 0.0
26/07:00pm 25.9 25.3 22.0 79 2.6 ESE 28 35 15 19 1008.9 1008.4 0.0
26/06:30pm 26.1 25.9 22.0 78 2.8 ESE 26 32 14 17 1009.1 1008.6 0.0
26/06:00pm 26.2 24.9 22.1 78 2.8 ESE 32 39 17 21 1008.1 1007.6 0.0
26/05:30pm 26.7 25.9 22.3 77 3.0 ESE 30 37 16 20 1008.2 1007.7 0.0
26/05:00pm 26.7 25.5 22.3 77 3.0 ESE 32 37 17 20 1007.8 1007.3 0.0
26/04:30pm 27.0 25.9 22.4 76 3.1 E 32 37 17 20 1007.4 1006.8 0.0
26/04:00pm 27.5 26.7 22.4 73 3.5 ESE 30 35 16 19 1007.9 1007.4 0.0
26/03:30pm 27.2 26.6 22.6 76 3.1 SE 30 35 16 19 1007.5 1006.9 0.0

Other Formats:

Comma delimited format used in spreadsheet applications
http://www.bom.gov.au/fwo/IDN60801/IDN60801.94599.axf

JavaScript Object Notation format (JSON) in row-major order
http://www.bom.gov.au/fwo/IDN60801/IDN60801.94599.json